Time;durP1;ratioP1;P1;durP2;ratioP2;P2;SDS_P1;SDS_P2;PMS_P1;PMS_P2;Temp;Humidity;BMP_temperature;BMP_pressure;BME280_temperature;BME280_humidity;BME280_pressure;Samples;Min_cycle;Max_cycle;Signal;HPM_P1;HPM_P2
2023/05/31 00:01:48;;;;;;;9.15;3.70;;;10.80;99.90;;;;;;5074043;28;20040;-66
2023/05/31 00:04:13;;;;;;;8.77;4.25;;;10.80;99.90;;;;;;5073848;28;20041;-66
2023/05/31 00:06:39;;;;;;;7.28;3.85;;;10.70;99.90;;;;;;5074071;28;20108;-66
2023/05/31 00:09:05;;;;;;;9.63;3.90;;;10.70;99.90;;;;;;5072855;28;20063;-66
2023/05/31 00:11:30;;;;;;;7.65;4.35;;;10.70;99.90;;;;;;5073879;28;20037;-66
2023/05/31 00:13:56;;;;;;;8.80;4.45;;;10.60;99.90;;;;;;5073483;28;20040;-66
2023/05/31 00:16:21;;;;;;;7.18;3.90;;;10.60;99.90;;;;;;5072222;28;20394;-66
2023/05/31 00:18:47;;;;;;;6.35;3.78;;;10.50;99.90;;;;;;5073929;28;20239;-66
2023/05/31 00:21:12;;;;;;;8.65;3.88;;;10.60;99.90;;;;;;5073794;28;20067;-66
2023/05/31 00:23:38;;;;;;;5.43;3.63;;;10.50;99.90;;;;;;5073151;28;20036;-66
2023/05/31 00:26:04;;;;;;;7.18;3.65;;;10.50;99.90;;;;;;5073227;28;20033;-65
2023/05/31 00:28:29;;;;;;;6.53;3.55;;;10.40;99.90;;;;;;5073478;28;20497;-66
2023/05/31 00:30:55;;;;;;;6.50;4.00;;;10.40;99.90;;;;;;5072194;28;20041;-66
2023/05/31 00:33:20;;;;;;;7.88;4.25;;;10.40;99.90;;;;;;5072627;28;20028;-66
2023/05/31 00:35:46;;;;;;;9.75;4.55;;;10.30;99.90;;;;;;5073086;28;20048;-66
2023/05/31 00:38:13;;;;;;;9.30;4.80;;;10.30;99.90;;;;;;5073537;28;20040;-66
2023/05/31 00:40:39;;;;;;;12.38;4.15;;;10.30;99.90;;;;;;5072846;28;20051;-66
2023/05/31 00:43:04;;;;;;;9.05;4.40;;;10.30;99.90;;;;;;5073047;28;20490;-66
2023/05/31 00:45:31;;;;;;;9.95;5.35;;;10.30;99.90;;;;;;5072678;28;20551;-66
2023/05/31 00:48:00;;;;;;;7.80;4.65;;;10.30;99.90;;;;;;5073301;28;20033;-66
2023/05/31 00:50:26;;;;;;;9.43;4.72;;;10.20;99.90;;;;;;5071852;28;20093;-66
2023/05/31 00:52:54;;;;;;;8.32;5.05;;;10.20;99.90;;;;;;5071718;28;20033;-66
2023/05/31 00:55:20;;;;;;;7.63;4.90;;;10.20;99.90;;;;;;5072738;28;20037;-66
2023/05/31 00:57:46;;;;;;;9.73;4.53;;;10.20;99.90;;;;;;5072418;28;20045;-66
2023/05/31 01:00:14;;;;;;;8.00;4.65;;;10.20;99.90;;;;;;5072738;28;20044;-66
2023/05/31 01:02:41;;;;;;;12.38;4.85;;;10.20;99.90;;;;;;5072828;28;20494;-66
2023/05/31 01:05:08;;;;;;;9.95;4.68;;;10.20;99.90;;;;;;5071316;28;20044;-66
2023/05/31 01:07:34;;;;;;;9.48;5.28;;;10.20;99.90;;;;;;5072799;28;20043;-66
2023/05/31 01:10:05;;;;;;;10.45;5.32;;;10.20;99.90;;;;;;5071425;28;20036;-66
2023/05/31 01:13:01;;;;;;;11.27;5.65;;;10.20;99.90;;;;;;5071668;28;20097;-66
2023/05/31 01:15:33;;;;;;;9.48;5.20;;;10.20;99.90;;;;;;5072445;28;20125;-66
2023/05/31 01:18:11;;;;;;;10.07;5.47;;;10.10;99.90;;;;;;5072598;28;20115;-65
2023/05/31 01:20:39;;;;;;;11.40;5.57;;;10.20;99.90;;;;;;5072097;28;20044;-66
2023/05/31 01:23:27;;;;;;;9.10;5.47;;;10.10;99.90;;;;;;5072452;28;20127;-66
2023/05/31 01:26:13;;;;;;;10.23;5.32;;;10.20;99.90;;;;;;5072443;28;20383;-66
2023/05/31 01:28:40;;;;;;;10.88;5.07;;;10.20;99.90;;;;;;5071413;28;20394;-65
2023/05/31 01:31:10;;;;;;;12.43;5.60;;;10.20;99.90;;;;;;5071525;28;20044;-66
2023/05/31 01:33:36;;;;;;;10.73;5.82;;;10.20;99.90;;;;;;5072085;28;20490;-66
2023/05/31 01:36:03;;;;;;;10.02;5.70;;;10.20;99.90;;;;;;5071759;28;20055;-66
2023/05/31 01:38:29;;;;;;;11.73;5.28;;;10.20;99.90;;;;;;5070592;28;20055;-66
2023/05/31 01:40:57;;;;;;;11.23;5.38;;;10.20;99.90;;;;;;5071840;28;20040;-66
2023/05/31 01:43:27;;;;;;;12.45;6.25;;;10.20;99.90;;;;;;5071745;28;20497;-66
2023/05/31 01:45:57;;;;;;;12.32;6.00;;;10.20;99.90;;;;;;5070788;28;20036;-66
2023/05/31 01:48:24;;;;;;;12.27;5.43;;;10.20;99.90;;;;;;5072280;28;20035;-66
2023/05/31 01:50:50;;;;;;;10.32;5.63;;;10.20;99.90;;;;;;5070691;28;20407;-66
2023/05/31 01:53:16;;;;;;;10.13;5.43;;;10.20;99.90;;;;;;5071966;28;20401;-66
2023/05/31 01:55:43;;;;;;;12.05;5.97;;;10.20;99.90;;;;;;5071868;28;20041;-66
2023/05/31 01:58:10;;;;;;;11.05;5.00;;;10.20;99.90;;;;;;5072310;28;20048;-66
2023/05/31 02:00:37;;;;;;;11.45;5.40;;;10.20;99.90;;;;;;5072334;28;20086;-66
2023/05/31 02:03:04;;;;;;;10.05;5.22;;;10.20;99.90;;;;;;5062503;28;20486;-66
2023/05/31 02:05:30;;;;;;;12.00;5.32;;;10.10;99.90;;;;;;5070216;28;20044;-66
2023/05/31 02:07:55;;;;;;;11.23;5.60;;;10.10;99.90;;;;;;5071221;28;20127;-65
2023/05/31 02:10:21;;;;;;;13.48;5.90;;;10.10;99.90;;;;;;5071047;28;20127;-66
2023/05/31 02:12:50;;;;;;;10.82;5.65;;;10.00;99.90;;;;;;5071187;28;20119;-66
2023/05/31 02:15:19;;;;;;;12.25;5.40;;;10.00;99.90;;;;;;5069966;28;20048;-66
2023/05/31 02:17:46;;;;;;;12.23;5.70;;;10.00;99.90;;;;;;5071792;28;20044;-66
2023/05/31 02:20:13;;;;;;;12.90;5.50;;;10.00;99.90;;;;;;5070493;28;20082;-66
2023/05/31 02:22:42;;;;;;;14.02;6.03;;;10.00;99.90;;;;;;5071823;28;20047;-66
2023/05/31 02:25:10;;;;;;;12.20;5.72;;;10.00;99.90;;;;;;5070141;28;20040;-66
2023/05/31 02:27:36;;;;;;;14.18;5.75;;;10.00;99.90;;;;;;5071716;28;20130;-66
2023/05/31 02:30:06;;;;;;;14.55;5.93;;;10.00;99.90;;;;;;5071654;28;20040;-66
2023/05/31 02:32:37;;;;;;;12.90;6.13;;;10.00;99.90;;;;;;5075160;22;20044;-66
2023/05/31 02:35:10;;;;;;;10.38;5.78;;;9.90;99.90;;;;;;5053810;28;20059;-66
2023/05/31 02:37:37;;;;;;;14.43;5.50;;;9.90;99.90;;;;;;5053034;28;20390;-66
2023/05/31 02:40:08;;;;;;;13.57;6.18;;;9.90;99.90;;;;;;5052721;28;20045;-65
2023/05/31 02:42:39;;;;;;;11.60;5.88;;;9.80;99.90;;;;;;5053612;28;20112;-66
2023/05/31 02:45:05;;;;;;;13.02;6.32;;;9.80;99.90;;;;;;5054813;28;20032;-66
2023/05/31 02:47:31;;;;;;;13.20;6.18;;;9.80;99.90;;;;;;5055094;28;20124;-65
2023/05/31 02:49:56;;;;;;;12.02;6.03;;;9.80;99.90;;;;;;5055381;28;20525;-65
2023/05/31 02:52:23;;;;;;;12.88;5.78;;;9.80;99.90;;;;;;5055132;28;20045;-65
2023/05/31 02:54:49;;;;;;;11.35;5.53;;;9.80;99.90;;;;;;5055337;28;20151;-65
2023/05/31 02:57:15;;;;;;;12.80;6.10;;;9.80;99.90;;;;;;5055265;28;20040;-65
2023/05/31 02:59:43;;;;;;;12.43;6.43;;;9.80;99.90;;;;;;5055292;28;20043;-65
2023/05/31 03:02:09;;;;;;;14.13;6.38;;;9.80;99.90;;;;;;5055060;28;20041;-65
2023/05/31 03:04:35;;;;;;;13.18;5.65;;;9.80;99.90;;;;;;5054766;28;20067;-65
2023/05/31 03:07:00;;;;;;;12.15;6.15;;;9.80;99.90;;;;;;5054989;28;20049;-65
2023/05/31 03:09:26;;;;;;;13.90;6.10;;;9.70;99.90;;;;;;5055225;28;20405;-66
2023/05/31 03:11:51;;;;;;;16.55;6.28;;;9.70;99.90;;;;;;5054684;28;20029;-65
2023/05/31 03:14:17;;;;;;;11.68;5.43;;;9.70;99.90;;;;;;5054695;28;20494;-65
2023/05/31 03:16:43;;;;;;;14.15;5.68;;;9.60;99.90;;;;;;5054495;28;20399;-65
2023/05/31 03:19:09;;;;;;;11.95;5.43;;;9.60;99.90;;;;;;5054367;28;20086;-65
2023/05/31 03:21:35;;;;;;;14.40;6.35;;;9.60;99.90;;;;;;5054299;28;20053;-65
2023/05/31 03:24:01;;;;;;;13.02;5.88;;;9.60;99.90;;;;;;5054451;28;20510;-65
2023/05/31 03:26:26;;;;;;;13.15;5.72;;;9.60;99.90;;;;;;5054779;28;20073;-65
2023/05/31 03:28:52;;;;;;;15.68;6.22;;;9.50;99.90;;;;;;5054695;28;20115;-65
2023/05/31 03:31:18;;;;;;;12.60;5.68;;;9.50;99.90;;;;;;5054488;28;20618;-65
2023/05/31 03:33:44;;;;;;;13.20;5.95;;;9.50;99.90;;;;;;5054288;28;20037;-65
2023/05/31 03:36:10;;;;;;;11.93;5.82;;;9.50;99.90;;;;;;5054654;28;20404;-65
2023/05/31 03:38:36;;;;;;;16.30;5.75;;;9.50;99.90;;;;;;5054651;28;20041;-66
2023/05/31 03:41:01;;;;;;;15.15;6.50;;;9.50;99.90;;;;;;5054535;28;20517;-66
2023/05/31 03:43:27;;;;;;;14.35;6.45;;;9.50;99.90;;;;;;5054082;28;20044;-65
2023/05/31 03:45:52;;;;;;;14.80;6.45;;;9.50;99.90;;;;;;5053918;28;20506;-65
2023/05/31 03:48:18;;;;;;;16.60;6.68;;;9.60;99.90;;;;;;5053902;28;20434;-65
2023/05/31 03:50:44;;;;;;;12.40;6.40;;;9.60;99.90;;;;;;5054433;28;20048;-65
2023/05/31 03:53:10;;;;;;;15.65;7.00;;;9.60;99.90;;;;;;5053723;28;20041;-65
2023/05/31 03:55:36;;;;;;;19.15;6.75;;;9.60;99.90;;;;;;5054066;28;20091;-65
2023/05/31 03:58:02;;;;;;;17.48;7.82;;;9.60;99.90;;;;;;5053624;28;20119;-65
2023/05/31 04:00:28;;;;;;;16.90;7.90;;;9.60;99.90;;;;;;5051479;28;20037;-66
2023/05/31 04:02:54;;;;;;;16.15;7.50;;;9.70;99.90;;;;;;5041684;28;20037;-66
2023/05/31 04:05:20;;;;;;;17.08;7.18;;;9.70;99.90;;;;;;5052767;28;20044;-66
2023/05/31 04:07:45;;;;;;;18.85;7.25;;;9.70;99.90;;;;;;5053955;28;20033;-66
2023/05/31 04:10:11;;;;;;;17.85;7.68;;;9.80;99.90;;;;;;5053616;28;20045;-67
2023/05/31 04:12:36;;;;;;;19.45;7.32;;;9.70;99.90;;;;;;5053558;28;20037;-66
2023/05/31 04:15:02;;;;;;;17.55;6.88;;;9.80;99.90;;;;;;5053568;28;20033;-66
2023/05/31 04:17:28;;;;;;;19.60;7.30;;;9.80;99.90;;;;;;5053576;28;20103;-66
2023/05/31 04:19:53;;;;;;;17.05;7.53;;;9.80;99.90;;;;;;5054018;28;20094;-66
2023/05/31 04:22:20;;;;;;;15.85;7.47;;;9.80;99.90;;;;;;5053756;28;20044;-66
2023/05/31 04:24:46;;;;;;;18.27;7.45;;;9.90;99.90;;;;;;5053518;28;20049;-66
2023/05/31 04:27:18;;;;;;;15.60;7.25;;;9.90;99.90;;;;;;5053547;28;20047;-66
2023/05/31 04:29:45;;;;;;;18.60;7.15;;;9.90;99.90;;;;;;5053763;28;20044;-66
2023/05/31 04:32:14;;;;;;;17.38;7.68;;;10.00;99.90;;;;;;5053208;28;20033;-66
2023/05/31 04:34:40;;;;;;;16.70;6.70;;;10.00;99.90;;;;;;5051843;28;20071;-66
2023/05/31 04:37:07;;;;;;;18.58;7.72;;;10.00;99.90;;;;;;5053253;28;20041;-66
2023/05/31 04:39:32;;;;;;;18.17;6.95;;;10.00;99.90;;;;;;5053406;28;20044;-66
2023/05/31 04:41:59;;;;;;;16.60;7.78;;;10.10;99.90;;;;;;5053283;28;20116;-66
2023/05/31 04:44:24;;;;;;;20.05;7.78;;;10.20;99.90;;;;;;5053030;28;20037;-66
2023/05/31 04:46:50;;;;;;;16.13;8.40;;;10.20;99.90;;;;;;5053091;28;20040;-66
2023/05/31 04:49:16;;;;;;;19.58;8.10;;;10.20;99.90;;;;;;5053368;28;20079;-66
2023/05/31 04:51:42;;;;;;;19.33;8.60;;;10.30;99.90;;;;;;5053029;28;20090;-67
2023/05/31 04:54:08;;;;;;;19.42;8.95;;;10.30;99.90;;;;;;5052852;28;20033;-66
2023/05/31 04:56:33;;;;;;;15.57;8.25;;;10.40;99.90;;;;;;5052440;28;20044;-66
2023/05/31 04:58:59;;;;;;;19.13;7.88;;;10.50;99.90;;;;;;5052451;28;20041;-66
2023/05/31 05:01:26;;;;;;;22.63;8.70;;;10.60;99.90;;;;;;5052718;28;20104;-66
2023/05/31 05:03:52;;;;;;;23.70;8.48;;;10.70;99.90;;;;;;5051356;28;20045;-67
2023/05/31 05:06:22;;;;;;;18.58;7.40;;;10.80;99.90;;;;;;5052983;28;20041;-66
2023/05/31 05:08:47;;;;;;;18.58;8.43;;;10.90;99.90;;;;;;5052337;28;20448;-66
2023/05/31 05:11:13;;;;;;;22.00;8.40;;;11.00;99.90;;;;;;5052801;28;20044;-66
2023/05/31 05:13:39;;;;;;;21.35;8.18;;;11.10;99.90;;;;;;5052079;28;20033;-66
2023/05/31 05:16:05;;;;;;;16.92;8.55;;;11.20;99.90;;;;;;5051998;28;20043;-66
2023/05/31 05:18:31;;;;;;;19.17;8.75;;;11.30;99.90;;;;;;5052334;28;20379;-66
2023/05/31 05:20:57;;;;;;;20.10;7.38;;;11.40;99.90;;;;;;5052536;28;20486;-66
2023/05/31 05:23:23;;;;;;;18.45;8.82;;;11.50;99.90;;;;;;5052229;28;20079;-66
2023/05/31 05:25:48;;;;;;;18.08;7.80;;;11.60;99.90;;;;;;5052041;28;20045;-66
2023/05/31 05:28:14;;;;;;;23.20;9.05;;;11.70;99.90;;;;;;5051977;28;20457;-66
2023/05/31 05:30:40;;;;;;;18.30;7.88;;;11.70;99.90;;;;;;5052407;28;20073;-66
2023/05/31 05:33:06;;;;;;;18.88;7.68;;;11.80;99.90;;;;;;5051432;28;20072;-66
2023/05/31 05:35:31;;;;;;;22.05;9.10;;;11.90;99.90;;;;;;5052339;28;20040;-66
2023/05/31 05:37:59;;;;;;;23.17;8.52;;;12.00;99.90;;;;;;5052217;28;20490;-66
2023/05/31 05:40:25;;;;;;;21.13;8.82;;;12.20;99.90;;;;;;5052375;28;20140;-66
2023/05/31 05:42:50;;;;;;;19.17;8.40;;;12.30;99.90;;;;;;5052109;28;20041;-66
2023/05/31 05:45:16;;;;;;;20.90;8.98;;;12.40;99.90;;;;;;5051835;28;20171;-66
2023/05/31 05:47:44;;;;;;;20.00;9.68;;;12.50;99.90;;;;;;5051858;28;20094;-66
2023/05/31 05:50:11;;;;;;;21.98;8.65;;;12.60;99.90;;;;;;5051471;28;20044;-66
2023/05/31 05:52:38;;;;;;;21.55;8.68;;;12.60;99.90;;;;;;5051951;28;20093;-66
2023/05/31 05:55:04;;;;;;;19.92;9.35;;;12.70;99.90;;;;;;5051602;28;20124;-66
2023/05/31 05:57:30;;;;;;;18.20;9.18;;;12.80;99.90;;;;;;5051928;28;20140;-66
2023/05/31 05:59:57;;;;;;;22.25;8.68;;;12.90;99.90;;;;;;5051930;28;20426;-67
2023/05/31 06:02:23;;;;;;;19.85;9.02;;;13.00;99.90;;;;;;5052083;28;20052;-66
2023/05/31 06:04:49;;;;;;;16.45;7.75;;;13.00;99.90;;;;;;5051740;28;20056;-66
2023/05/31 06:07:19;;;;;;;15.43;7.95;;;13.10;99.90;;;;;;5051925;28;20110;-67
2023/05/31 06:09:45;;;;;;;20.52;9.05;;;13.10;99.90;;;;;;5051794;28;20037;-67
2023/05/31 06:12:11;;;;;;;19.75;8.57;;;13.20;99.90;;;;;;5051654;28;20045;-67
2023/05/31 06:14:37;;;;;;;17.55;8.93;;;13.30;99.90;;;;;;5051638;28;20055;-66
2023/05/31 06:17:02;;;;;;;15.55;8.23;;;13.40;99.90;;;;;;5051540;28;20112;-66
2023/05/31 06:19:28;;;;;;;14.30;8.43;;;13.50;99.90;;;;;;5051473;28;20044;-66
2023/05/31 06:21:57;;;;;;;15.65;7.60;;;13.50;99.90;;;;;;5051208;28;20039;-67
2023/05/31 06:24:23;;;;;;;21.02;8.48;;;13.60;99.90;;;;;;5051063;28;20661;-66
2023/05/31 06:26:48;;;;;;;18.33;8.70;;;13.60;99.90;;;;;;5051565;28;20123;-66
2023/05/31 06:29:14;;;;;;;16.85;8.05;;;13.70;99.90;;;;;;5051770;28;20033;-67
2023/05/31 06:31:40;;;;;;;15.30;7.60;;;13.80;99.90;;;;;;5051642;28;20117;-67
2023/05/31 06:34:06;;;;;;;19.58;7.90;;;13.90;99.90;;;;;;5051592;28;20112;-67
2023/05/31 06:36:31;;;;;;;16.27;8.45;;;14.00;99.90;;;;;;5051486;28;20469;-66
2023/05/31 06:38:57;;;;;;;18.67;8.32;;;14.10;99.90;;;;;;5051376;28;20426;-67
2023/05/31 06:41:25;;;;;;;19.73;8.35;;;14.20;99.90;;;;;;5051395;28;20033;-67
2023/05/31 06:43:50;;;;;;;15.18;7.80;;;14.30;99.90;;;;;;5051500;28;20087;-67
2023/05/31 06:46:16;;;;;;;17.30;8.30;;;14.30;99.90;;;;;;5051599;28;20045;-67
2023/05/31 06:48:41;;;;;;;16.75;8.57;;;14.40;99.90;;;;;;5050591;28;20044;-66
2023/05/31 06:51:07;;;;;;;18.13;7.35;;;14.50;99.90;;;;;;5051548;28;20041;-66
2023/05/31 06:53:33;;;;;;;19.98;8.27;;;14.60;99.90;;;;;;5051194;28;20432;-67
2023/05/31 06:55:58;;;;;;;20.92;8.55;;;14.70;99.90;;;;;;5051190;28;20037;-66
2023/05/31 06:58:28;;;;;;;16.42;8.50;;;14.80;99.90;;;;;;5051497;28;20083;-67
2023/05/31 07:00:54;;;;;;;16.58;8.63;;;14.90;99.90;;;;;;5051414;28;20116;-66
2023/05/31 07:03:19;;;;;;;16.40;8.05;;;15.00;99.90;;;;;;5051159;28;20167;-67
2023/05/31 07:05:46;;;;;;;20.00;8.40;;;15.20;99.90;;;;;;5050848;28;20406;-66
2023/05/31 07:08:14;;;;;;;16.25;7.60;;;15.30;99.90;;;;;;5051604;28;20033;-66
2023/05/31 07:10:40;;;;;;;19.05;8.35;;;15.40;99.90;;;;;;5051267;28;20044;-66
2023/05/31 07:13:05;;;;;;;15.25;7.78;;;15.50;99.90;;;;;;5050867;28;20029;-67
2023/05/31 07:15:31;;;;;;;15.55;8.50;;;15.60;99.90;;;;;;5050758;28;20449;-67
2023/05/31 07:17:56;;;;;;;15.85;7.63;;;15.70;99.90;;;;;;5051304;28;20045;-67
2023/05/31 07:20:22;;;;;;;16.48;7.72;;;15.70;99.90;;;;;;5054300;28;20116;-66
2023/05/31 07:22:47;;;;;;;13.75;7.68;;;15.80;99.90;;;;;;5054796;28;20636;-67
2023/05/31 07:25:13;;;;;;;14.38;6.90;;;16.00;99.90;;;;;;5053989;28;20076;-66
2023/05/31 07:27:38;;;;;;;11.75;6.80;;;16.10;99.90;;;;;;5054964;28;20036;-67
2023/05/31 07:30:05;;;;;;;14.10;6.88;;;16.20;99.90;;;;;;5054235;28;20037;-67
2023/05/31 07:32:30;;;;;;;17.48;7.25;;;16.40;99.90;;;;;;5053179;28;20044;-66
2023/05/31 07:34:56;;;;;;;16.55;7.47;;;16.50;99.90;;;;;;5054029;28;20045;-67
2023/05/31 07:37:21;;;;;;;14.63;6.88;;;16.50;99.90;;;;;;5054148;28;20044;-67
2023/05/31 07:39:47;;;;;;;11.30;6.45;;;16.50;99.90;;;;;;5053895;28;20041;-66
2023/05/31 07:42:13;;;;;;;12.30;7.32;;;16.50;99.90;;;;;;5054650;28;20083;-66
2023/05/31 07:44:39;;;;;;;12.65;6.82;;;16.60;99.90;;;;;;5054276;28;20494;-66
2023/05/31 07:47:05;;;;;;;16.13;7.63;;;16.70;99.90;;;;;;5054098;28;20044;-66
2023/05/31 07:49:30;;;;;;;15.35;6.50;;;16.80;99.90;;;;;;5053856;28;20041;-67
2023/05/31 07:51:56;;;;;;;16.15;6.43;;;16.80;99.90;;;;;;5054397;28;20078;-66
2023/05/31 07:54:21;;;;;;;14.75;6.60;;;16.80;99.90;;;;;;5053407;28;20041;-66
2023/05/31 07:56:47;;;;;;;13.30;6.68;;;16.90;99.90;;;;;;5054445;28;20409;-66
2023/05/31 07:59:13;;;;;;;13.23;6.13;;;17.00;99.90;;;;;;5054061;28;20045;-66
2023/05/31 08:01:40;;;;;;;13.30;6.35;;;17.10;99.90;;;;;;5053766;28;20051;-66
2023/05/31 08:04:07;;;;;;;12.68;5.45;;;17.20;99.90;;;;;;5053613;28;20116;-67
2023/05/31 08:06:33;;;;;;;13.63;5.50;;;17.30;99.90;;;;;;5053816;28;20033;-67
2023/05/31 08:08:59;;;;;;;13.52;5.25;;;17.40;99.90;;;;;;5053788;28;20039;-66
2023/05/31 08:11:25;;;;;;;14.07;6.63;;;17.50;99.90;;;;;;5053923;28;20410;-66
2023/05/31 08:13:51;;;;;;;12.80;6.63;;;17.60;99.90;;;;;;5053868;28;20429;-66
2023/05/31 08:16:17;;;;;;;10.75;5.63;;;17.80;99.90;;;;;;5053849;28;20048;-66
2023/05/31 08:18:43;;;;;;;12.43;6.10;;;18.00;99.90;;;;;;5053702;28;20048;-66
2023/05/31 08:21:09;;;;;;;12.73;5.38;;;18.20;99.90;;;;;;5053610;28;20052;-67
2023/05/31 08:23:35;;;;;;;14.48;5.78;;;18.30;99.90;;;;;;5053400;28;20098;-67
2023/05/31 08:26:00;;;;;;;9.27;5.60;;;18.40;99.90;;;;;;5053756;28;20411;-66
2023/05/31 08:28:26;;;;;;;9.98;4.88;;;18.60;99.90;;;;;;5053763;28;20111;-67
2023/05/31 08:30:52;;;;;;;11.27;5.80;;;18.60;99.90;;;;;;5052542;28;20044;-67
2023/05/31 08:33:18;;;;;;;8.05;4.88;;;18.60;99.90;;;;;;5077882;22;20041;-65
2023/05/31 08:35:43;;;;;;;12.23;5.35;;;18.60;99.90;;;;;;5054595;28;20142;-65
2023/05/31 08:38:09;;;;;;;9.35;5.10;;;18.70;99.90;;;;;;5064923;28;20071;-65
2023/05/31 08:40:35;;;;;;;12.88;5.10;;;18.80;99.90;;;;;;5073138;28;20040;-64
2023/05/31 08:43:15;;;;;;;13.18;5.75;;;18.90;99.90;;;;;;5073409;28;20052;-64
2023/05/31 08:45:42;;;;;;;12.73;5.80;;;18.90;99.90;;;;;;5055185;28;20048;-65
2023/05/31 08:48:11;;;;;;;8.85;4.68;;;19.00;99.90;;;;;;5055556;28;20037;-64
2023/05/31 08:50:37;;;;;;;13.02;4.05;;;19.20;99.90;;;;;;5072850;28;20041;-65
2023/05/31 08:53:05;;;;;;;10.27;4.60;;;19.20;99.90;;;;;;5073099;28;20586;-64
2023/05/31 08:55:31;;;;;;;12.38;4.85;;;19.30;99.90;;;;;;5072776;28;20504;-65
2023/05/31 08:57:58;;;;;;;8.38;4.70;;;19.50;99.90;;;;;;5073134;28;20127;-64
2023/05/31 09:00:24;;;;;;;10.40;4.32;;;19.60;99.90;;;;;;5055227;28;20102;-65
2023/05/31 09:02:51;;;;;;;10.07;4.88;;;19.60;99.90;;;;;;5072205;28;20545;-65
2023/05/31 09:05:17;;;;;;;10.07;4.47;;;19.70;99.90;;;;;;5054574;28;20052;-65
2023/05/31 09:07:43;;;;;;;8.82;4.53;;;19.80;99.90;;;;;;5073000;28;20041;-65
2023/05/31 09:10:09;;;;;;;8.35;4.57;;;19.80;99.90;;;;;;5053904;28;20067;-65
2023/05/31 09:12:36;;;;;;;9.20;4.60;;;19.90;99.90;;;;;;5054850;28;20037;-64
2023/05/31 09:15:03;;;;;;;6.80;4.05;;;19.90;99.90;;;;;;5063668;28;20090;-64
2023/05/31 09:17:30;;;;;;;9.68;5.15;;;19.90;99.90;;;;;;5034218;28;20076;-65
2023/05/31 09:19:56;;;;;;;10.50;4.70;;;20.00;99.90;;;;;;5034438;28;20049;-65
2023/05/31 09:22:22;;;;;;;14.57;4.95;;;19.90;99.90;;;;;;5052564;28;20098;-65
2023/05/31 09:24:56;;;;;;;11.90;5.32;;;19.90;99.90;;;;;;5052264;28;20120;-65
2023/05/31 09:27:22;;;;;;;8.48;4.43;;;20.10;99.90;;;;;;5052365;28;20122;-65
2023/05/31 09:29:52;;;;;;;9.00;4.53;;;20.10;99.90;;;;;;5034485;28;20490;-65
2023/05/31 09:32:19;;;;;;;10.52;4.70;;;20.10;99.90;;;;;;5051986;28;20033;-65
2023/05/31 09:34:44;;;;;;;9.90;5.10;;;20.20;99.90;;;;;;5052108;28;20044;-65
2023/05/31 09:37:22;;;;;;;8.15;4.65;;;20.30;99.90;;;;;;5052513;28;20101;-65
2023/05/31 09:39:57;;;;;;;9.52;4.35;;;20.40;99.90;;;;;;5052347;28;20041;-65
2023/05/31 09:42:26;;;;;;;8.82;4.20;;;20.70;99.90;;;;;;5051791;28;20067;-65
2023/05/31 09:44:52;;;;;;;8.25;4.40;;;20.80;99.90;;;;;;5052073;28;20044;-65
2023/05/31 09:47:24;;;;;;;9.80;4.55;;;20.90;99.90;;;;;;5052351;28;20043;-65
2023/05/31 09:49:49;;;;;;;8.55;4.75;;;21.10;99.90;;;;;;5034355;28;20087;-65
2023/05/31 09:52:15;;;;;;;10.57;4.30;;;21.20;99.90;;;;;;5051463;28;20527;-65
2023/05/31 09:54:41;;;;;;;10.68;4.63;;;21.30;99.90;;;;;;5033952;28;20045;-65
2023/05/31 09:57:11;;;;;;;8.60;4.68;;;21.50;99.90;;;;;;5051672;28;20045;-65
2023/05/31 09:59:40;;;;;;;9.85;5.03;;;21.60;99.90;;;;;;5051857;28;20041;-65
2023/05/31 10:02:07;;;;;;;10.13;4.57;;;21.70;99.90;;;;;;5051543;28;20041;-65
2023/05/31 10:04:35;;;;;;;11.88;4.75;;;21.60;99.30;;;;;;5051733;28;20079;-65
2023/05/31 10:07:02;;;;;;;10.02;4.70;;;21.70;99.20;;;;;;5051806;28;20645;-65
2023/05/31 10:09:27;;;;;;;8.73;4.53;;;21.80;99.20;;;;;;5051861;28;20040;-65
2023/05/31 10:11:56;;;;;;;10.18;4.50;;;21.80;99.00;;;;;;5033915;28;20044;-65
2023/05/31 10:14:28;;;;;;;8.25;3.95;;;21.80;98.30;;;;;;5051657;28;20086;-65
2023/05/31 10:16:56;;;;;;;9.45;4.95;;;21.70;98.10;;;;;;5033790;28;20033;-65
2023/05/31 10:19:26;;;;;;;9.57;5.28;;;21.50;98.10;;;;;;5051864;28;20061;-65
2023/05/31 10:21:53;;;;;;;8.07;4.35;;;21.40;98.40;;;;;;5034014;28;20052;-65
2023/05/31 10:24:44;;;;;;;8.00;4.47;;;21.40;98.10;;;;;;5033719;28;20045;-65
2023/05/31 10:27:27;;;;;;;11.20;5.22;;;21.50;97.80;;;;;;5051704;28;20045;-65
2023/05/31 10:29:56;;;;;;;10.00;4.22;;;21.50;98.00;;;;;;5033908;28;20045;-65
2023/05/31 10:32:32;;;;;;;10.88;4.65;;;21.60;98.40;;;;;;5033307;28;20057;-65
2023/05/31 10:34:58;;;;;;;10.02;4.10;;;21.70;98.70;;;;;;5033568;28;20049;-65
2023/05/31 10:37:25;;;;;;;8.63;4.65;;;21.80;97.50;;;;;;5051743;28;20036;-65
2023/05/31 10:40:19;;;;;;;12.25;4.30;;;21.90;97.00;;;;;;5033555;28;20136;-65
2023/05/31 10:43:00;;;;;;;9.35;4.50;;;21.90;96.20;;;;;;5033459;28;20487;-65
2023/05/31 10:45:31;;;;;;;9.23;4.57;;;22.00;95.50;;;;;;5051415;28;20115;-65
2023/05/31 10:48:26;;;;;;;10.90;4.82;;;22.20;95.50;;;;;;5051237;28;20041;-65
2023/05/31 10:51:00;;;;;;;8.85;4.50;;;22.30;94.40;;;;;;5033408;28;20076;-65
2023/05/31 10:53:30;;;;;;;12.63;4.88;;;22.20;95.10;;;;;;5051622;28;20065;-65
2023/05/31 10:56:02;;;;;;;7.45;4.22;;;22.20;94.80;;;;;;5037459;28;20083;-65
2023/05/31 10:58:38;;;;;;;8.98;4.20;;;22.10;95.30;;;;;;5055451;28;20063;-64
2023/05/31 11:01:09;;;;;;;6.75;4.40;;;22.10;95.10;;;;;;5055157;28;20086;-64
2023/05/31 11:03:36;;;;;;;9.43;4.18;;;22.30;94.50;;;;;;5037079;28;20053;-65
2023/05/31 11:06:06;;;;;;;6.28;4.05;;;22.40;93.80;;;;;;5054786;28;20529;-65
2023/05/31 11:08:32;;;;;;;10.00;4.95;;;22.50;95.00;;;;;;5055335;28;20036;-64
2023/05/31 11:11:27;;;;;;;7.82;4.20;;;22.60;93.40;;;;;;5055124;28;20047;-65
2023/05/31 11:14:04;;;;;;;9.73;4.30;;;22.60;93.20;;;;;;5054796;28;20040;-64
2023/05/31 11:16:32;;;;;;;9.57;4.07;;;22.70;92.80;;;;;;5054805;28;20040;-65
2023/05/31 11:19:06;;;;;;;9.35;4.63;;;22.60;91.90;;;;;;5054966;28;20041;-65
2023/05/31 11:21:55;;;;;;;7.10;3.88;;;22.60;91.60;;;;;;5054816;28;20036;-65
2023/05/31 11:24:53;;;;;;;8.13;4.38;;;22.70;91.30;;;;;;5054537;28;20045;-65
2023/05/31 11:27:20;;;;;;;8.55;3.97;;;22.80;91.90;;;;;;5055027;28;20606;-65
2023/05/31 11:29:51;;;;;;;7.95;4.53;;;22.60;90.90;;;;;;5054750;28;20065;-64
2023/05/31 11:32:18;;;;;;;9.00;4.50;;;22.60;91.20;;;;;;5054462;28;20048;-65
2023/05/31 11:34:58;;;;;;;11.98;4.50;;;22.60;91.30;;;;;;5054463;28;20067;-65
2023/05/31 11:37:28;;;;;;;8.00;4.05;;;22.60;90.90;;;;;;5054583;28;20098;-64
2023/05/31 11:39:55;;;;;;;7.38;4.03;;;22.80;90.10;;;;;;5054589;28;20029;-65
2023/05/31 11:42:21;;;;;;;7.25;3.80;;;22.80;90.00;;;;;;5054453;28;20029;-65
2023/05/31 11:44:49;;;;;;;12.50;5.40;;;22.90;89.30;;;;;;5054255;28;20048;-65
2023/05/31 11:47:33;;;;;;;10.13;4.78;;;22.90;92.30;;;;;;5054432;28;20118;-64
2023/05/31 11:49:58;;;;;;;11.88;4.95;;;22.90;93.60;;;;;;5054668;28;20039;-65
2023/05/31 11:52:24;;;;;;;10.65;4.90;;;22.70;95.00;;;;;;5036020;28;20048;-65
2023/05/31 11:54:50;;;;;;;12.38;4.57;;;22.60;95.30;;;;;;5054172;28;20120;-65
2023/05/31 11:57:17;;;;;;;7.90;4.35;;;22.40;97.30;;;;;;5054025;28;20033;-65
2023/05/31 11:59:43;;;;;;;9.82;4.47;;;22.30;99.50;;;;;;5054226;28;20040;-65
2023/05/31 12:02:10;;;;;;;11.23;4.30;;;22.30;99.70;;;;;;5053736;28;20041;-65
2023/05/31 12:04:41;;;;;;;8.57;5.15;;;22.20;98.40;;;;;;5035788;28;20037;-65
2023/05/31 12:07:10;;;;;;;;;;;22.30;98.90;;;;;;5054585;28;20037;-65
2023/05/31 12:09:36;;;;;;;10.93;4.78;;;22.40;99.40;;;;;;5053990;28;20388;-65
2023/05/31 12:12:05;;;;;;;9.30;4.65;;;22.40;98.90;;;;;;5052810;28;20033;-65
2023/05/31 12:14:31;;;;;;;11.15;5.35;;;22.50;98.90;;;;;;5053389;28;20048;-65
2023/05/31 12:17:04;;;;;;;11.77;5.18;;;22.40;98.70;;;;;;5053589;28;20041;-65
2023/05/31 12:19:31;;;;;;;10.57;5.55;;;22.40;99.30;;;;;;5036324;28;20112;-65
2023/05/31 12:21:57;;;;;;;11.13;5.00;;;22.40;99.60;;;;;;5053508;28;20032;-65
2023/05/31 12:24:22;;;;;;;10.68;5.15;;;22.20;99.20;;;;;;5053521;28;20124;-65
2023/05/31 12:26:48;;;;;;;9.82;4.82;;;22.10;99.30;;;;;;5053685;28;20112;-65
2023/05/31 12:29:15;;;;;;;13.07;5.78;;;22.20;99.90;;;;;;5053412;28;20040;-64
2023/05/31 12:31:41;;;;;;;13.13;5.63;;;22.30;99.90;;;;;;5053500;28;20080;-66
2023/05/31 12:34:12;;;;;;;11.55;5.28;;;22.40;99.80;;;;;;5035437;28;20402;-65
2023/05/31 12:36:43;;;;;;;10.05;5.10;;;22.40;99.20;;;;;;5053617;28;20037;-65
2023/05/31 12:39:13;;;;;;;11.85;5.00;;;22.30;98.90;;;;;;5053101;28;20033;-65
2023/05/31 12:41:44;;;;;;;11.77;5.13;;;22.20;99.30;;;;;;5052988;28;20409;-65
2023/05/31 12:44:11;;;;;;;8.05;4.68;;;22.20;99.30;;;;;;5053310;28;20040;-65